CheckWX is a tool to help pilots better visualize weather data.  It is not intended as a substitute for an official pre-flight weather briefing.

08:48:12 UTC

KETB METAR
West Bend Municipal Airport
West Bend, Wisconsin, USA
Current

13 mins ago

KETB 070835Z AUTO 00000KT 10SM OVC085 M04/M05 A3032 RMK AO2
Observed
Dec-7 @ 08:35 UTC
Visibility
10 SM
Flight Rules
VFR
Cloud Levels
  • Overcast at 8,500' AGL
Temperature
-4°C / 25°F
Dewpoint
-5°C / 23°F
Humidity
93%
Altimeter
30.32" Hg
Pressure
1026.72 hPa
Previous

33 mins ago

KETB 070815Z AUTO 00000KT 10SM OVC085 M05/M05 A3034 RMK AO2
Observed
Dec-7 @ 08:15 UTC
Visibility
10 SM
Flight Rules
VFR
Cloud Levels
  • Overcast at 8,500' AGL
Temperature
-5°C / 23°F
Dewpoint
-5°C / 23°F
Humidity
100%
Altimeter
30.34" Hg
Pressure
1027.42 hPa
Previous

53 mins ago

KETB 070755Z AUTO 00000KT 10SM OVC085 M05/M05 A3034 RMK AO2
Observed
Dec-7 @ 07:55 UTC
Visibility
10 SM
Flight Rules
VFR
Cloud Levels
  • Overcast at 8,500' AGL
Temperature
-5°C / 23°F
Dewpoint
-5°C / 23°F
Humidity
100%
Altimeter
30.34" Hg
Pressure
1027.42 hPa